Time;durP1;ratioP1;P1;durP2;ratioP2;P2;SDS_P1;SDS_P2;PMS_P1;PMS_P2;Temp;Humidity;BMP_temperature;BMP_pressure;BME280_temperature;BME280_humidity;BME280_pressure;Samples;Min_cycle;Max_cycle;Signal;HPM_P1;HPM_P2
2022/07/24 00:01:38;;;;;;;11.23;5.68;;;;;;;25.13;67.01;98267.28;4503643;31;20141;-81
2022/07/24 00:04:06;;;;;;;12.43;5.25;;;;;;;25.20;67.14;98265.72;4503093;31;20096;-81
2022/07/24 00:06:33;;;;;;;11.38;4.97;;;;;;;25.45;65.74;98255.31;4503167;31;20110;-81
2022/07/24 00:09:00;;;;;;;10.77;5.00;;;;;;;25.24;65.30;98260.94;4503480;31;20085;-80
2022/07/24 00:11:28;;;;;;;11.00;5.30;;;;;;;24.88;68.69;98263.53;4503204;31;20088;-81
2022/07/24 00:13:55;;;;;;;11.20;5.28;;;;;;;24.51;69.46;98256.59;4503437;31;20115;-81
2022/07/24 00:16:22;;;;;;;11.20;4.87;;;;;;;24.46;68.86;98265.94;4502856;31;20151;-81
2022/07/24 00:18:50;;;;;;;11.40;5.53;;;;;;;24.31;69.22;98249.75;4503468;31;20084;-80
2022/07/24 00:21:17;;;;;;;8.52;3.97;;;;;;;24.41;69.55;98225.97;4503448;31;20151;-81
2022/07/24 00:23:44;;;;;;;10.63;4.82;;;;;;;24.67;67.61;98220.78;4503039;31;20548;-80
2022/07/24 00:26:11;;;;;;;9.85;4.75;;;;;;;25.12;65.91;98210.19;4503379;31;20120;-81
2022/07/24 00:28:38;;;;;;;11.88;5.00;;;;;;;24.68;66.74;98204.84;4503350;31;20092;-81
2022/07/24 00:31:05;;;;;;;12.52;5.47;;;;;;;24.39;69.44;98194.47;4502760;31;20135;-82
2022/07/24 00:33:32;;;;;;;10.82;5.00;;;;;;;24.83;69.15;98206.94;4503149;31;21598;-81
2022/07/24 00:35:59;;;;;;;10.65;4.82;;;;;;;24.24;71.50;98214.38;4502006;31;20179;-81
2022/07/24 00:38:26;;;;;;;11.48;5.30;;;;;;;24.84;69.49;98219.16;4502934;31;20166;-81
2022/07/24 00:40:53;;;;;;;13.73;5.03;;;;;;;25.45;66.74;98221.00;4503303;31;20143;-81
2022/07/24 00:43:21;;;;;;;10.38;5.22;;;;;;;25.74;66.20;98229.47;4503255;31;20108;-81
2022/07/24 00:45:48;;;;;;;10.65;5.47;;;;;;;26.86;60.96;98250.38;4502791;31;20168;-81
2022/07/24 00:48:16;;;;;;;10.82;5.35;;;;;;;27.61;58.00;98259.00;4503213;31;20340;-81
2022/07/24 00:50:43;;;;;;;12.70;5.65;;;;;;;26.92;59.97;98262.97;4503214;31;20106;-81
2022/07/24 00:53:10;;;;;;;10.43;5.37;;;;;;;26.72;61.05;98258.97;4502721;31;20156;-81
2022/07/24 00:55:37;;;;;;;9.88;5.40;;;;;;;27.04;59.87;98272.28;4503020;31;20171;-81
2022/07/24 00:58:04;;;;;;;9.60;4.93;;;;;;;26.48;62.17;98265.03;4501968;31;20127;-81
2022/07/24 01:00:31;;;;;;;11.65;5.00;;;;;;;26.56;62.00;98256.25;4502802;31;20130;-81
2022/07/24 01:02:58;;;;;;;9.68;5.35;;;;;;;26.47;63.05;98268.63;4503095;31;20118;-82
2022/07/24 01:05:26;;;;;;;10.70;5.35;;;;;;;26.38;63.57;98262.50;4502492;31;20168;-82
2022/07/24 01:07:52;;;;;;;11.85;5.70;;;;;;;27.12;61.47;98283.88;4503096;31;20147;-83
2022/07/24 01:10:20;;;;;;;13.35;5.87;;;;;;;25.65;68.50;98284.03;4503115;31;20088;-83
2022/07/24 01:12:47;;;;;;;10.90;5.50;;;;;;;25.85;67.36;98275.94;4502686;31;20130;-83
2022/07/24 01:15:14;;;;;;;11.30;5.72;;;;;;;26.51;65.19;98267.34;4501562;31;20099;-82
2022/07/24 01:17:42;;;;;;;11.43;5.78;;;;;;;26.41;65.63;98243.66;4501741;31;20150;-82
2022/07/24 01:20:10;;;;;;;11.23;5.87;;;;;;;27.18;62.38;98233.69;4502599;31;20155;-82
2022/07/24 01:22:37;;;;;;;10.95;5.20;;;;;;;27.81;59.47;98226.84;4502715;31;20115;-81
2022/07/24 01:25:04;;;;;;;11.48;5.60;;;;;;;26.40;65.51;98226.13;4502669;31;20133;-81
2022/07/24 01:27:31;;;;;;;11.63;6.18;;;;;;;26.98;64.47;98203.22;4502590;31;20460;-82
2022/07/24 01:29:58;;;;;;;13.75;6.30;;;;;;;27.51;62.18;98209.81;4502551;31;20098;-82
2022/07/24 01:32:25;;;;;;;12.20;6.12;;;;;;;27.76;61.11;98211.47;4502824;31;20434;-81
2022/07/24 01:34:52;;;;;;;11.52;5.93;;;;;;;26.93;64.36;98206.38;4502100;31;20159;-82
2022/07/24 01:37:19;;;;;;;11.38;5.93;;;;;;;27.81;61.25;98190.56;4502702;31;20102;-82
2022/07/24 01:39:46;;;;;;;11.75;6.22;;;;;;;25.86;69.00;98175.34;4502683;31;20457;-82
2022/07/24 01:42:13;;;;;;;11.75;6.00;;;;;;;27.10;65.23;98156.91;4502248;31;20101;-82
2022/07/24 01:44:40;;;;;;;12.77;6.62;;;;;;;26.89;65.76;98151.25;4502457;31;20171;-82
2022/07/24 01:47:07;;;;;;;12.02;5.78;;;;;;;27.66;61.94;98137.44;4502557;31;20089;-82
2022/07/24 01:49:34;;;;;;;10.77;5.97;;;;;;;29.09;57.47;98135.22;4502139;31;20454;-82
2022/07/24 01:52:01;;;;;;;12.98;6.60;;;;;;;29.09;56.19;98129.91;4502487;31;20482;-82
2022/07/24 01:54:28;;;;;;;12.30;5.95;;;;;;;29.20;55.94;98134.78;4501964;31;20164;-82
2022/07/24 01:56:55;;;;;;;12.95;6.35;;;;;;;28.86;56.78;98124.63;4502411;31;20159;-82
2022/07/24 01:59:23;;;;;;;12.60;6.70;;;;;;;29.14;55.97;98132.00;4502346;31;20088;-82
2022/07/24 02:01:52;;;;;;;12.98;6.62;;;;;;;28.16;60.73;98120.28;4502029;31;20128;-83
2022/07/24 02:04:20;;;;;;;12.27;6.12;;;;;;;28.45;60.33;98106.34;4502111;31;20092;-82
2022/07/24 02:06:47;;;;;;;10.88;6.10;;;;;;;29.16;58.17;98106.09;4502310;31;20151;-82
2022/07/24 02:09:14;;;;;;;12.25;6.62;;;;;;;29.60;55.74;98109.63;4501918;31;20126;-82
2022/07/24 02:11:41;;;;;;;12.68;6.50;;;;;;;28.88;56.75;98117.31;4502129;31;20136;-83
2022/07/24 02:14:08;;;;;;;11.70;6.22;;;;;;;28.50;57.91;98119.09;4501891;31;20112;-83
2022/07/24 02:16:35;;;;;;;10.85;6.03;;;;;;;28.11;60.23;98116.50;4501786;31;20391;-82
2022/07/24 02:19:02;;;;;;;10.85;5.97;;;;;;;27.85;59.53;98114.97;4502082;31;20088;-82
2022/07/24 02:21:30;;;;;;;10.43;5.50;;;;;;;27.64;60.96;98123.47;4502104;31;20108;-83
2022/07/24 02:23:57;;;;;;;12.52;5.93;;;;;;;26.28;65.97;98126.06;4501546;31;20168;-82
2022/07/24 02:26:24;;;;;;;10.90;5.93;;;;;;;25.03;71.36;98124.81;4501913;31;20123;-83
2022/07/24 02:28:51;;;;;;;11.50;6.03;;;;;;;24.03;75.58;98130.31;4502399;31;20127;-82
2022/07/24 02:31:18;;;;;;;12.88;6.37;;;;;;;24.39;74.61;98133.84;4503683;31;20546;-82
2022/07/24 02:33:45;;;;;;;12.90;6.47;;;;;;;23.79;78.02;98141.37;4504206;31;20762;-83
2022/07/24 02:36:12;;;;;;;11.80;5.87;;;;;;;24.28;75.54;98138.47;4503961;31;20088;-82
2022/07/24 02:38:39;;;;;;;11.35;6.72;;;;;;;24.47;75.33;98128.63;4503918;31;20132;-82
2022/07/24 02:41:07;;;;;;;12.20;6.22;;;;;;;24.50;74.69;98132.78;4504141;31;20164;-83
2022/07/24 02:43:34;;;;;;;12.82;6.40;;;;;;;24.64;73.92;98145.41;4503750;31;20493;-82
2022/07/24 02:46:01;;;;;;;12.23;6.90;;;;;;;24.43;75.01;98153.62;4504015;31;20084;-82
2022/07/24 02:48:28;;;;;;;12.00;6.00;;;;;;;24.88;72.49;98155.34;4504219;31;20494;-83
2022/07/24 02:50:55;;;;;;;11.35;6.10;;;;;;;24.85;71.86;98163.56;4503747;31;20446;-82
2022/07/24 02:53:22;;;;;;;12.30;6.80;;;;;;;24.07;75.45;98150.13;4503939;31;20091;-82
2022/07/24 02:55:49;;;;;;;12.93;6.72;;;;;;;24.35;74.21;98152.72;4503904;31;20147;-82
2022/07/24 02:58:16;;;;;;;13.18;6.90;;;;;;;24.58;72.90;98161.88;4503688;31;20143;-82
2022/07/24 03:00:43;;;;;;;12.57;6.85;;;;;;;25.45;69.59;98168.16;4503895;31;20115;-83
2022/07/24 03:03:10;;;;;;;13.62;6.80;;;;;;;25.40;68.87;98158.03;4503990;31;20088;-83
2022/07/24 03:05:37;;;;;;;13.50;6.68;;;;;;;24.43;71.87;98147.53;4503558;31;20167;-82
2022/07/24 03:08:04;;;;;;;13.52;6.85;;;;;;;23.94;74.47;98147.00;4503875;31;20154;-82
2022/07/24 03:10:31;;;;;;;11.93;6.78;;;;;;;24.31;73.12;98152.19;4503898;31;20144;-82
2022/07/24 03:12:58;;;;;;;13.13;7.12;;;;;;;23.52;75.86;98152.72;4503556;31;20550;-82
2022/07/24 03:15:25;;;;;;;12.77;6.62;;;;;;;24.11;74.40;98148.00;4503737;31;20126;-83
2022/07/24 03:17:55;;;;;;;12.00;6.85;;;;;;;24.12;73.25;98150.47;4503861;31;20068;-82
2022/07/24 03:20:25;;;;;;;12.52;7.07;;;;;;;25.24;68.89;98156.16;4503615;31;20088;-82
2022/07/24 03:22:53;;;;;;;12.50;6.87;;;;;;;25.86;66.30;98153.38;4503784;31;20091;-82
2022/07/24 03:25:20;;;;;;;13.68;6.78;;;;;;;24.73;69.91;98147.16;4503448;31;20435;-82
2022/07/24 03:27:47;;;;;;;12.27;6.82;;;;;;;24.31;72.04;98149.56;4503617;31;20131;-82
2022/07/24 03:30:15;;;;;;;11.80;6.45;;;;;;;25.40;68.39;98160.69;4503568;31;20396;-82
2022/07/24 03:32:42;;;;;;;11.55;6.32;;;;;;;25.26;68.03;98151.53;4503409;31;20429;-82
2022/07/24 03:35:10;;;;;;;11.30;5.87;;;;;;;24.65;70.46;98143.63;4503482;31;20171;-82
2022/07/24 03:37:38;;;;;;;12.23;6.47;;;;;;;23.90;74.06;98151.72;4503727;31;20110;-82
2022/07/24 03:40:06;;;;;;;12.60;6.62;;;;;;;24.52;71.74;98158.00;4503180;31;20095;-82
2022/07/24 03:42:33;;;;;;;13.48;6.30;;;;;;;25.19;69.18;98161.06;4503347;31;20147;-82
2022/07/24 03:45:00;;;;;;;12.90;6.45;;;;;;;25.32;68.80;98161.50;4503464;31;20111;-82
2022/07/24 03:47:27;;;;;;;12.65;6.50;;;;;;;27.02;61.56;98172.81;4503355;31;20442;-82
2022/07/24 03:49:54;;;;;;;11.00;6.12;;;;;;;27.22;60.98;98179.41;4503620;31;20572;-82
2022/07/24 03:52:21;;;;;;;11.55;5.87;;;;;;;27.90;57.09;98178.09;4503583;31;20140;-83
2022/07/24 03:54:50;;;;;;;10.80;6.07;;;;;;;28.20;56.60;98185.25;4503021;31;20183;-82
2022/07/24 03:57:17;;;;;;;10.80;6.43;;;;;;;28.02;57.21;98176.72;4503696;31;20134;-82
2022/07/24 03:59:44;;;;;;;11.27;6.43;;;;;;;27.88;58.13;98182.75;4503527;31;20129;-82
2022/07/24 04:02:11;;;;;;;10.85;5.80;;;;;;;28.13;57.06;98183.47;4503180;31;20084;-82
2022/07/24 04:04:38;;;;;;;11.40;6.57;;;;;;;27.90;57.75;98189.53;4503362;31;20170;-82
2022/07/24 04:07:05;;;;;;;12.20;6.43;;;;;;;28.34;55.10;98196.16;4503562;31;20451;-82
2022/07/24 04:09:32;;;;;;;11.15;6.25;;;;;;;28.43;56.10;98203.91;4503241;31;20151;-82
2022/07/24 04:12:00;;;;;;;11.25;6.15;;;;;;;28.35;55.78;98208.41;4503618;31;20450;-82
2022/07/24 04:14:27;;;;;;;12.63;6.65;;;;;;;28.47;54.70;98204.38;4503193;31;20114;-82
2022/07/24 04:16:54;;;;;;;11.55;6.37;;;;;;;28.43;56.21;98219.00;4503038;31;20083;-82
2022/07/24 04:19:21;;;;;;;11.43;6.43;;;;;;;28.41;56.40;98211.22;4503435;31;20100;-83
2022/07/24 04:21:48;;;;;;;11.25;6.37;;;;;;;28.64;55.99;98215.72;4503154;31;20123;-82
2022/07/24 04:24:15;;;;;;;10.85;6.18;;;;;;;27.97;57.94;98221.50;4503280;31;20104;-82
2022/07/24 04:26:42;;;;;;;11.43;6.35;;;;;;;28.21;57.86;98226.69;4503461;31;20120;-82
2022/07/24 04:29:09;;;;;;;12.60;6.37;;;;;;;28.51;56.22;98230.41;4503091;31;20156;-82
2022/07/24 04:31:36;;;;;;;13.27;6.75;;;;;;;28.09;57.42;98228.09;4503242;31;20103;-82
2022/07/24 04:34:03;;;;;;;13.02;6.93;;;;;;;28.66;56.87;98227.81;4503213;31;20088;-82
2022/07/24 04:36:30;;;;;;;12.90;6.68;;;;;;;29.08;55.76;98238.00;4502940;31;20154;-82
2022/07/24 04:38:57;;;;;;;12.13;6.57;;;;;;;29.20;54.80;98245.53;4503284;31;20446;-82
2022/07/24 04:41:24;;;;;;;12.98;6.68;;;;;;;29.09;55.33;98252.09;4503322;31;20430;-82
2022/07/24 04:43:51;;;;;;;14.90;6.75;;;;;;;29.55;53.72;98262.69;4502813;31;20087;-82
2022/07/24 04:46:18;;;;;;;10.27;5.90;;;;;;;29.56;53.82;98267.00;4503124;31;20162;-82
2022/07/24 04:48:45;;;;;;;11.40;6.30;;;;;;;29.86;49.78;98275.84;4503286;31;20507;-82
2022/07/24 04:51:13;;;;;;;11.15;6.05;;;;;;;29.49;51.97;98280.22;4502959;31;20112;-82
2022/07/24 04:53:40;;;;;;;11.12;5.82;;;;;;;29.55;51.78;98278.66;4503092;31;20100;-82
2022/07/24 04:56:07;;;;;;;11.35;6.30;;;;;;;30.14;50.74;98284.06;4503118;31;20163;-82
2022/07/24 04:58:34;;;;;;;11.45;6.37;;;;;;;29.71;51.28;98283.00;4502765;31;20589;-82
2022/07/24 05:01:01;;;;;;;11.98;6.20;;;;;;;29.61;50.95;98285.91;4503170;31;20533;-82
2022/07/24 05:03:28;;;;;;;10.77;5.62;;;;;;;29.94;50.16;98300.53;4502965;31;20084;-82
2022/07/24 05:05:55;;;;;;;10.20;6.12;;;;;;;30.65;47.72;98295.59;4502701;31;20076;-82
2022/07/24 05:08:22;;;;;;;13.60;6.50;;;;;;;30.25;49.37;98304.88;4503100;31;20114;-82
2022/07/24 05:10:49;;;;;;;10.98;6.10;;;;;;;30.99;47.64;98296.78;4503092;31;20100;-81
2022/07/24 05:13:17;;;;;;;11.27;6.60;;;;;;;30.13;49.36;98301.87;4502752;31;20163;-82
2022/07/24 05:15:44;;;;;;;12.20;7.07;;;;;;;30.50;49.14;98305.41;4502821;31;20088;-82
2022/07/24 05:18:11;;;;;;;9.57;5.75;;;;;;;31.64;47.40;98309.09;4502518;31;20478;-81
2022/07/24 05:20:38;;;;;;;12.30;6.10;;;;;;;32.35;44.41;98314.34;4502959;31;20100;-81
2022/07/24 05:23:05;;;;;;;11.15;6.12;;;;;;;32.34;44.17;98310.03;4502948;31;20119;-81
2022/07/24 05:25:32;;;;;;;12.85;6.75;;;;;;;33.07;43.21;98309.28;4502419;31;20143;-81
2022/07/24 05:27:59;;;;;;;11.63;6.62;;;;;;;32.52;43.43;98312.97;4502801;31;20156;-81
2022/07/24 05:30:26;;;;;;;13.15;6.72;;;;;;;33.94;40.37;98310.19;4502489;31;20119;-81
2022/07/24 05:32:53;;;;;;;12.15;7.50;;;;;;;33.41;41.32;98307.50;4502431;31;20098;-81
2022/07/24 05:35:20;;;;;;;12.05;7.50;;;;;;;31.97;43.94;98309.34;4502533;31;20083;-82
2022/07/24 05:37:54;;;;;;;12.77;7.45;;;;;;;31.43;45.33;98306.47;4502569;31;20159;-81
2022/07/24 05:40:21;;;;;;;13.18;7.75;;;;;;;30.05;49.14;98301.09;4502363;31;20155;-82
2022/07/24 05:42:48;;;;;;;12.55;7.93;;;;;;;30.72;47.88;98308.97;4502612;31;20426;-82
2022/07/24 05:45:16;;;;;;;12.60;7.45;;;;;;;30.77;47.58;98319.91;4502325;31;20107;-82
2022/07/24 05:47:42;;;;;;;11.85;7.10;;;;;;;31.17;46.13;98326.50;4502351;31;20546;-81
2022/07/24 05:50:11;;;;;;;12.20;7.15;;;;;;;30.15;48.33;98328.28;4502591;31;20096;-81
2022/07/24 05:52:39;;;;;;;11.80;7.18;;;;;;;29.67;49.38;98328.56;4502362;31;20163;-81
2022/07/24 05:55:07;;;;;;;11.38;6.75;;;;;;;29.18;50.45;98329.94;4501851;31;20168;-81
2022/07/24 05:57:42;;;;;;;12.27;6.45;;;;;;;29.62;49.59;98330.09;4502352;31;20089;-81
2022/07/24 06:00:10;;;;;;;12.85;6.57;;;;;;;29.04;50.50;98334.19;4502073;31;20113;-81
2022/07/24 06:02:43;;;;;;;11.95;6.25;;;;;;;28.24;53.43;98339.59;4502428;31;20461;-81
2022/07/24 06:05:10;;;;;;;13.43;7.68;;;;;;;28.33;53.47;98338.63;4503560;31;20104;-81
2022/07/24 06:07:37;;;;;;;14.52;8.07;;;;;;;27.78;54.75;98335.91;4504108;31;20137;-81
2022/07/24 06:10:04;;;;;;;13.05;7.78;;;;;;;28.32;53.84;98344.94;4504419;31;20108;-81
2022/07/24 06:12:34;;;;;;;12.50;6.70;;;;;;;28.77;52.32;98338.09;4504346;31;20100;-81
2022/07/24 06:15:02;;;;;;;12.48;7.50;;;;;;;28.22;53.54;98350.41;4503838;31;20100;-81
2022/07/24 06:17:29;;;;;;;12.45;7.30;;;;;;;28.62;53.09;98342.50;4504185;31;20114;-81
2022/07/24 06:19:55;;;;;;;14.05;7.35;;;;;;;28.62;54.09;98358.44;4504378;31;20130;-82
2022/07/24 06:22:22;;;;;;;12.60;7.93;;;;;;;29.21;52.11;98350.81;4503877;31;20189;-81
2022/07/24 06:24:49;;;;;;;12.80;7.72;;;;;;;30.27;49.01;98348.09;4504065;31;20643;-81
2022/07/24 06:27:16;;;;;;;12.25;7.62;;;;;;;30.52;48.63;98359.31;4504319;31;20095;-81
2022/07/24 06:29:43;;;;;;;13.13;7.47;;;;;;;31.07;46.56;98358.78;4503689;31;20127;-81
2022/07/24 06:32:10;;;;;;;12.07;7.47;;;;;;;30.77;47.15;98357.19;4504142;31;20084;-81
2022/07/24 06:34:37;;;;;;;12.60;7.97;;;;;;;30.77;47.60;98368.69;4503983;31;20147;-81
2022/07/24 06:37:04;;;;;;;12.93;8.43;;;;;;;31.97;44.81;98364.56;4503868;31;20102;-81
2022/07/24 06:39:31;;;;;;;14.18;8.23;;;;;;;30.91;47.19;98363.50;4504205;31;20131;-81
2022/07/24 06:41:58;;;;;;;14.38;8.98;;;;;;;30.27;48.58;98369.41;4504043;31;20151;-81
2022/07/24 06:44:25;;;;;;;13.90;8.52;;;;;;;31.63;45.21;98358.12;4503674;31;20100;-81
2022/07/24 06:46:52;;;;;;;15.93;8.90;;;;;;;30.79;47.61;98369.31;4504174;31;20099;-81
2022/07/24 06:49:19;;;;;;;13.73;8.55;;;;;;;31.93;45.43;98369.50;4502670;31;20112;-81
2022/07/24 06:51:47;;;;;;;13.60;8.80;;;;;;;31.21;46.87;98369.63;4504141;31;20207;-81
2022/07/24 06:54:14;;;;;;;13.75;9.50;;;;;;;30.68;48.45;98366.31;4503821;31;20147;-81
2022/07/24 06:56:41;;;;;;;13.62;9.43;;;;;;;30.88;47.87;98364.72;4503723;31;20549;-81
2022/07/24 06:59:14;;;;;;;14.07;9.07;;;;;;;31.85;45.09;98373.12;4504116;31;20155;-81
2022/07/24 07:01:41;;;;;;;13.82;9.27;;;;;;;29.87;50.28;98365.28;4504054;31;20485;-81
2022/07/24 07:04:08;;;;;;;14.95;9.95;;;;;;;29.30;51.40;98363.06;4503483;31;20080;-81
2022/07/24 07:06:35;;;;;;;17.80;10.10;;;;;;;30.00;51.23;98368.16;4503838;31;20107;-81
2022/07/24 07:09:08;;;;;;;14.30;9.40;;;;;;;30.81;48.81;98372.63;4504074;31;20092;-81
2022/07/24 07:11:35;;;;;;;16.90;9.80;;;;;;;31.40;46.76;98373.50;4503480;31;20448;-81
2022/07/24 07:14:02;;;;;;;15.98;9.80;;;;;;;31.32;47.04;98369.94;4503869;31;20160;-81
2022/07/24 07:16:29;;;;;;;15.93;10.43;;;;;;;30.55;49.52;98366.94;4503098;31;20099;-81
2022/07/24 07:18:56;;;;;;;14.38;9.70;;;;;;;30.99;48.30;98366.88;4503426;31;20092;-81
2022/07/24 07:21:23;;;;;;;15.45;9.25;;;;;;;31.73;46.01;98371.97;4503807;31;20143;-81
2022/07/24 07:23:52;;;;;;;13.20;9.63;;;;;;;30.07;49.84;98370.94;4503821;31;20174;-81
2022/07/24 07:26:19;;;;;;;19.23;9.93;;;;;;;30.89;49.27;98379.69;4503310;31;20144;-81
2022/07/24 07:28:46;;;;;;;16.02;9.93;;;;;;;31.36;47.42;98375.69;4503680;31;20110;-81
2022/07/24 07:31:13;;;;;;;15.30;9.90;;;;;;;31.17;47.32;98376.31;4503121;31;20419;-80
2022/07/24 07:33:40;;;;;;;15.93;10.45;;;;;;;30.11;50.10;98378.41;4503665;31;20076;-81
2022/07/24 07:36:08;;;;;;;15.45;10.43;;;;;;;30.39;49.74;98375.91;4502437;31;20118;-81
2022/07/24 07:38:37;;;;;;;16.05;10.05;;;;;;;30.78;47.75;98380.97;4503371;31;20505;-81
2022/07/24 07:41:05;;;;;;;15.43;9.77;;;;;;;31.58;46.14;98381.84;4503770;31;20144;-81
2022/07/24 07:43:36;;;;;;;15.07;10.07;;;;;;;30.24;49.07;98385.75;4503788;31;20088;-81
2022/07/24 07:46:04;;;;;;;13.60;9.25;;;;;;;31.63;45.61;98390.13;4503321;31;20106;-81
2022/07/24 07:48:31;;;;;;;15.63;9.70;;;;;;;31.29;46.99;98386.31;4503739;31;20140;-81
2022/07/24 07:50:58;;;;;;;15.05;9.85;;;;;;;31.17;45.84;98395.78;4503682;31;20100;-81
2022/07/24 07:53:25;;;;;;;14.07;9.65;;;;;;;30.80;46.69;98391.44;4503180;31;20122;-80
2022/07/24 07:55:52;;;;;;;14.30;9.88;;;;;;;30.34;48.51;98394.28;4503451;31;20175;-81
2022/07/24 07:58:19;;;;;;;13.77;9.55;;;;;;;30.33;48.24;98397.12;4503610;31;20096;-81
2022/07/24 08:00:46;;;;;;;14.38;9.85;;;;;;;30.74;47.18;98401.03;4503248;31;20159;-80
2022/07/24 08:03:13;;;;;;;15.80;10.80;;;;;;;31.12;46.72;98390.19;4503454;31;20105;-80
2022/07/24 08:05:48;;;;;;;14.68;10.00;;;;;;;31.40;45.84;98403.66;4503401;31;20103;-80
2022/07/24 08:08:15;;;;;;;14.43;9.80;;;;;;;31.40;46.08;98395.66;4503245;31;20112;-80
2022/07/24 08:10:43;;;;;;;15.93;9.70;;;;;;;32.08;45.65;98399.56;4503542;31;20119;-80
2022/07/24 08:13:11;;;;;;;15.13;10.13;;;;;;;32.08;44.47;98401.41;4503482;31;20163;-80
2022/07/24 08:15:38;;;;;;;17.55;10.38;;;;;;;33.52;41.35;98391.66;4503106;31;20741;-81
2022/07/24 08:18:06;;;;;;;16.95;9.68;;;;;;;33.32;41.35;98395.09;4502160;31;20126;-80
2022/07/24 08:20:33;;;;;;;15.20;10.02;;;;;;;32.47;43.31;98392.87;4501798;31;20191;-80
2022/07/24 08:23:00;;;;;;;14.68;10.15;;;;;;;33.12;42.38;98388.88;4503434;31;20110;-80
2022/07/24 08:25:27;;;;;;;13.77;9.60;;;;;;;33.40;41.79;98383.44;4503271;31;20196;-80
2022/07/24 08:27:55;;;;;;;15.20;10.07;;;;;;;32.75;43.01;98393.66;4502794;31;20147;-80
2022/07/24 08:30:23;;;;;;;15.63;9.90;;;;;;;32.76;42.40;98387.28;4503068;31;20111;-80
2022/07/24 08:32:50;;;;;;;16.42;10.20;;;;;;;31.92;44.22;98379.34;4503470;31;20350;-80
2022/07/24 08:35:17;;;;;;;15.43;10.55;;;;;;;33.54;41.47;98384.25;4502888;31;20171;-80
2022/07/24 08:37:44;;;;;;;17.00;10.05;;;;;;;33.37;41.05;98384.63;4503380;31;20496;-80
2022/07/24 08:40:12;;;;;;;19.20;10.63;;;;;;;32.69;42.17;98378.41;4503349;31;20167;-80
2022/07/24 08:42:39;;;;;;;14.90;9.80;;;;;;;33.69;38.97;98376.03;4502989;31;20163;-80
2022/07/24 08:45:07;;;;;;;15.10;10.82;;;;;;;32.55;41.21;98382.03;4503038;31;20155;-80
2022/07/24 08:47:37;;;;;;;14.38;9.82;;;;;;;32.18;42.80;98383.22;4503226;31;20160;-80
2022/07/24 08:50:05;;;;;;;17.87;10.77;;;;;;;32.34;42.03;98393.63;4503005;31;20150;-80
2022/07/24 08:52:35;;;;;;;15.25;10.13;;;;;;;32.29;43.01;98392.50;4502134;31;20110;-80
2022/07/24 08:55:10;;;;;;;14.60;9.95;;;;;;;31.45;45.63;98392.41;4503143;31;20099;-80
2022/07/24 08:57:37;;;;;;;13.57;9.43;;;;;;;31.79;43.74;98391.72;4502809;31;20208;-80
2022/07/24 09:00:04;;;;;;;15.68;9.40;;;;;;;31.45;42.56;98397.75;4503193;31;20163;-80
2022/07/24 09:02:31;;;;;;;14.65;9.25;;;;;;;31.49;41.81;98397.19;4502889;31;20392;-80
2022/07/24 09:05:00;;;;;;;13.82;8.73;;;;;;;31.80;40.28;98388.88;4502915;31;20498;-80
2022/07/24 09:07:29;;;;;;;13.07;8.77;;;;;;;30.89;43.93;98393.00;4503112;31;20096;-81
2022/07/24 09:10:08;;;;;;;13.18;8.30;;;;;;;30.99;43.64;98390.03;4501382;31;20183;-80
2022/07/24 09:12:41;;;;;;;12.15;8.15;;;;;;;31.81;40.18;98393.22;4503096;31;20076;-80
2022/07/24 09:15:18;;;;;;;13.18;7.57;;;;;;;32.48;39.05;98397.19;4502848;31;20120;-80
2022/07/24 09:17:50;;;;;;;12.77;8.90;;;;;;;32.44;38.71;98396.78;4502608;31;20143;-80
2022/07/24 09:20:17;;;;;;;12.85;7.80;;;;;;;33.01;39.79;98398.28;4502899;31;20131;-80
2022/07/24 09:22:47;;;;;;;13.38;8.20;;;;;;;32.84;37.34;98396.97;4502859;31;20359;-80
2022/07/24 09:25:22;;;;;;;13.88;8.60;;;;;;;32.76;37.80;98402.50;4502255;31;20096;-80
2022/07/24 09:27:57;;;;;;;13.82;9.93;;;;;;;33.14;38.31;98416.22;4502990;31;20744;-80
2022/07/24 09:30:38;;;;;;;13.35;8.77;;;;;;;33.85;37.11;98408.56;4502642;31;20490;-80
2022/07/24 09:33:08;;;;;;;14.90;9.80;;;;;;;32.46;40.49;98399.25;4502849;31;20102;-80
2022/07/24 09:35:42;;;;;;;12.95;9.13;;;;;;;33.90;37.62;98400.75;4501397;31;20104;-80
2022/07/24 09:38:11;;;;;;;12.02;8.38;;;;;;;34.62;36.07;98403.59;4501851;31;20536;-80
2022/07/24 09:40:41;;;;;;;12.70;7.35;;;;;;;33.25;37.01;98396.91;4502425;31;20112;-80
2022/07/24 09:43:21;;;;;;;12.98;7.93;;;;;;;32.49;37.84;98406.84;4501480;31;20494;-80
2022/07/24 09:45:54;;;;;;;13.73;8.27;;;;;;;31.98;38.16;98398.25;4502244;31;20123;-80
2022/07/24 09:48:23;;;;;;;11.77;7.43;;;;;;;33.48;35.08;98401.94;4502651;31;20091;-80
2022/07/24 09:50:51;;;;;;;11.82;7.00;;;;;;;33.22;34.56;98401.84;4502598;31;20084;-81
2022/07/24 09:53:20;;;;;;;11.35;6.97;;;;;;;32.48;35.33;98406.03;4502121;31;20136;-80
2022/07/24 09:56:14;;;;;;;10.70;6.78;;;;;;;32.42;35.65;98408.66;4502455;31;20111;-80
2022/07/24 09:58:44;;;;;;;14.07;8.10;;;;;;;32.15;36.15;98395.09;4502109;31;20144;-80
2022/07/24 10:01:12;;;;;;;12.95;7.43;;;;;;;32.45;36.30;98403.75;4502295;31;20076;-80
2022/07/24 10:03:44;;;;;;;11.70;7.25;;;;;;;32.96;35.01;98405.25;4502328;31;20111;-80
2022/07/24 10:06:13;;;;;;;11.38;7.47;;;;;;;33.32;34.72;98397.78;4501976;31;20167;-80
2022/07/24 10:08:42;;;;;;;11.20;7.03;;;;;;;32.34;36.29;98395.47;4502365;31;20088;-80
2022/07/24 10:11:10;;;;;;;9.95;6.05;;;;;;;33.23;34.74;98384.78;4502230;31;20084;-80
2022/07/24 10:13:37;;;;;;;12.27;6.90;;;;;;;32.34;34.54;98398.97;4500601;31;20144;-80
2022/07/24 10:16:13;;;;;;;11.85;6.95;;;;;;;32.92;35.04;98396.00;4502068;31;20180;-80
2022/07/24 10:18:47;;;;;;;;;;;;;;;33.12;34.19;98396.06;4502468;31;20152;-80
2022/07/24 10:21:21;;;;;;;11.15;6.12;;;;;;;32.33;34.41;98396.50;4501872;31;20042;-81
2022/07/24 10:24:03;;;;;;;10.73;5.72;;;;;;;32.10;35.04;98397.50;4501966;31;20163;-80
2022/07/24 10:26:34;;;;;;;11.82;5.97;;;;;;;32.00;35.02;98396.22;4501952;31;20143;-80
2022/07/24 10:29:22;;;;;;;12.07;6.95;;;;;;;32.56;34.28;98399.72;4502014;31;20135;-80
2022/07/24 10:31:58;;;;;;;11.85;7.10;;;;;;;32.66;34.00;98394.84;4501765;31;20132;-80
2022/07/24 10:34:43;;;;;;;12.55;6.90;;;;;;;32.72;34.30;98401.22;4501493;31;20110;-80
2022/07/24 10:37:43;;;;;;;15.35;8.05;;;;;;;32.16;35.56;98393.25;4501989;31;20155;-80
2022/07/24 10:40:45;;;;;;;12.82;7.18;;;;;;;33.05;34.76;98402.19;4501844;31;20156;-80
2022/07/24 10:43:14;;;;;;;11.63;6.68;;;;;;;33.42;33.41;98393.91;4500602;31;20107;-80
2022/07/24 10:45:53;;;;;;;10.40;6.30;;;;;;;33.29;34.18;98387.50;4501702;31;20123;-80
2022/07/24 10:48:20;;;;;;;10.65;6.62;;;;;;;33.74;32.02;98394.97;4501441;31;20137;-79
2022/07/24 10:51:07;;;;;;;14.60;7.28;;;;;;;34.06;31.23;98393.37;4503024;31;20096;-79
2022/07/24 10:53:37;;;;;;;;;;;;;;;34.13;32.09;98378.09;4504182;31;20092;-80
2022/07/24 10:56:24;;;;;;;13.93;7.57;;;;;;;34.15;32.53;98387.59;4503731;31;20430;-80
2022/07/24 10:59:02;;;;;;;10.68;6.07;;;;;;;34.18;32.66;98387.16;4503944;31;20100;-80
2022/07/24 11:01:47;;;;;;;11.15;6.82;;;;;;;33.52;32.05;98372.94;4504125;31;20088;-81
2022/07/24 11:04:23;;;;;;;11.15;7.18;;;;;;;33.04;33.35;98375.69;4503804;31;20111;-80
2022/07/24 11:06:54;;;;;;;10.95;6.15;;;;;;;33.73;32.62;98369.25;4502856;31;20435;-81
2022/07/24 11:09:23;;;;;;;11.07;6.85;;;;;;;33.51;32.61;98376.66;4503682;31;20100;-80
2022/07/24 11:11:53;;;;;;;9.80;6.15;;;;;;;32.88;34.28;98365.34;4502845;31;20171;-80
2022/07/24 11:14:24;;;;;;;11.50;6.60;;;;;;;33.78;31.16;98366.78;4503747;31;20147;-80
2022/07/24 11:16:52;;;;;;;11.32;6.53;;;;;;;32.64;32.42;98369.31;4502474;31;20080;-79
2022/07/24 11:19:19;;;;;;;10.73;5.82;;;;;;;33.13;31.37;98360.28;4503745;31;20130;-80
2022/07/24 11:21:47;;;;;;;9.40;5.18;;;;;;;33.21;30.24;98360.09;4503891;31;20163;-80
2022/07/24 11:24:19;;;;;;;11.05;6.55;;;;;;;33.75;29.24;98353.81;4503416;31;20158;-80
2022/07/24 11:26:48;;;;;;;11.02;5.65;;;;;;;32.81;32.10;98355.44;4503840;31;20088;-80
2022/07/24 11:29:18;;;;;;;12.27;6.72;;;;;;;33.02;31.47;98346.47;4503828;31;20343;-80
2022/07/24 11:31:47;;;;;;;10.00;5.65;;;;;;;32.88;31.79;98352.00;4503306;31;20088;-80